Terminal Aerodrome Forecast
Issued by NWS

Home | Current Version | Previous Version | Text Only | Print | Product List | Glossary On
Versions: 1 2 3 4 5 6 7 8 9 10 11 12 13 14 15 16 17 18 19 20 21 22 23 24 25 26 27 28
000
FTUS44 KOUN 212333
TAFLAW
TAF
KLAW 212333Z 2200/2224 04014KT P6SM VCTS SCT040CB BKN090
     FM220100 04010KT P6SM SCT100 SCT250
     FM221500 07010KT P6SM SCT100 SCT250=

USA.gov is the U.S. government's official web portal to all federal, state and local government web resources and services.